sensor_id;sensor_type;location;lat;lon;timestamp;temperature;humidity
22781;DHT22;11557;50.884;4.322;2023-10-13T00:01:22;19.70;99.90
22781;DHT22;11557;50.884;4.322;2023-10-13T00:03:49;19.80;99.90
22781;DHT22;11557;50.884;4.322;2023-10-13T00:06:14;19.80;99.90
22781;DHT22;11557;50.884;4.322;2023-10-13T00:08:41;19.80;99.90
22781;DHT22;11557;50.884;4.322;2023-10-13T00:11:12;19.80;99.90
22781;DHT22;11557;50.884;4.322;2023-10-13T00:13:37;19.70;99.90
22781;DHT22;11557;50.884;4.322;2023-10-13T00:16:22;19.60;99.90
22781;DHT22;11557;50.884;4.322;2023-10-13T00:18:49;19.80;99.90
22781;DHT22;11557;50.884;4.322;2023-10-13T00:21:19;19.70;99.90
22781;DHT22;11557;50.884;4.322;2023-10-13T00:23:57;19.80;99.90
22781;DHT22;11557;50.884;4.322;2023-10-13T00:26:28;19.90;99.90
22781;DHT22;11557;50.884;4.322;2023-10-13T00:28:55;19.90;99.90
22781;DHT22;11557;50.884;4.322;2023-10-13T00:31:46;19.90;99.90
22781;DHT22;11557;50.884;4.322;2023-10-13T00:34:13;19.90;99.90
22781;DHT22;11557;50.884;4.322;2023-10-13T00:36:45;19.80;99.90
22781;DHT22;11557;50.884;4.322;2023-10-13T00:39:14;19.80;99.90
22781;DHT22;11557;50.884;4.322;2023-10-13T00:41:44;19.70;99.90
22781;DHT22;11557;50.884;4.322;2023-10-13T00:44:24;19.70;99.90
22781;DHT22;11557;50.884;4.322;2023-10-13T00:47:04;19.70;99.90
22781;DHT22;11557;50.884;4.322;2023-10-13T00:49:34;19.70;99.90
22781;DHT22;11557;50.884;4.322;2023-10-13T00:52:08;19.60;99.90
22781;DHT22;11557;50.884;4.322;2023-10-13T00:54:36;19.60;99.90
22781;DHT22;11557;50.884;4.322;2023-10-13T00:57:03;19.50;99.90
22781;DHT22;11557;50.884;4.322;2023-10-13T00:59:52;19.60;99.90
22781;DHT22;11557;50.884;4.322;2023-10-13T01:02:19;19.70;99.90
22781;DHT22;11557;50.884;4.322;2023-10-13T01:05:04;19.80;99.90
22781;DHT22;11557;50.884;4.322;2023-10-13T01:07:30;19.70;99.90
22781;DHT22;11557;50.884;4.322;2023-10-13T01:09:56;19.70;99.90
22781;DHT22;11557;50.884;4.322;2023-10-13T01:12:22;19.70;99.90
22781;DHT22;11557;50.884;4.322;2023-10-13T01:14:51;19.80;99.90
22781;DHT22;11557;50.884;4.322;2023-10-13T01:17:16;19.80;99.90
22781;DHT22;11557;50.884;4.322;2023-10-13T01:19:43;19.70;99.90
22781;DHT22;11557;50.884;4.322;2023-10-13T01:22:11;19.70;99.90
22781;DHT22;11557;50.884;4.322;2023-10-13T01:24:37;19.60;99.90
22781;DHT22;11557;50.884;4.322;2023-10-13T01:27:06;19.60;99.90
22781;DHT22;11557;50.884;4.322;2023-10-13T01:29:50;19.70;99.90
22781;DHT22;11557;50.884;4.322;2023-10-13T01:32:18;19.70;99.90
22781;DHT22;11557;50.884;4.322;2023-10-13T01:34:44;19.60;99.90
22781;DHT22;11557;50.884;4.322;2023-10-13T01:37:12;19.60;99.90
22781;DHT22;11557;50.884;4.322;2023-10-13T01:39:38;19.70;99.90
22781;DHT22;11557;50.884;4.322;2023-10-13T01:42:03;19.70;99.90
22781;DHT22;11557;50.884;4.322;2023-10-13T01:44:29;19.70;99.90
22781;DHT22;11557;50.884;4.322;2023-10-13T01:47:00;19.60;99.90
22781;DHT22;11557;50.884;4.322;2023-10-13T01:49:32;19.70;99.90
22781;DHT22;11557;50.884;4.322;2023-10-13T01:52:09;19.80;99.90
22781;DHT22;11557;50.884;4.322;2023-10-13T01:54:37;19.90;99.90
22781;DHT22;11557;50.884;4.322;2023-10-13T01:57:09;19.80;99.90
22781;DHT22;11557;50.884;4.322;2023-10-13T01:59:40;19.70;99.90
22781;DHT22;11557;50.884;4.322;2023-10-13T02:02:13;19.80;99.90
22781;DHT22;11557;50.884;4.322;2023-10-13T02:04:40;19.80;99.90
22781;DHT22;11557;50.884;4.322;2023-10-13T02:07:08;19.70;99.90
22781;DHT22;11557;50.884;4.322;2023-10-13T02:09:34;19.70;99.90
22781;DHT22;11557;50.884;4.322;2023-10-13T02:12:02;19.60;99.90
22781;DHT22;11557;50.884;4.322;2023-10-13T02:14:28;19.50;99.90
22781;DHT22;11557;50.884;4.322;2023-10-13T02:16:54;19.50;99.90
22781;DHT22;11557;50.884;4.322;2023-10-13T02:19:37;19.40;99.90
22781;DHT22;11557;50.884;4.322;2023-10-13T02:22:06;19.40;99.90
22781;DHT22;11557;50.884;4.322;2023-10-13T02:24:35;19.40;99.90
22781;DHT22;11557;50.884;4.322;2023-10-13T02:27:08;19.40;99.90
22781;DHT22;11557;50.884;4.322;2023-10-13T02:29:42;19.40;99.90
22781;DHT22;11557;50.884;4.322;2023-10-13T02:32:11;19.50;99.90
22781;DHT22;11557;50.884;4.322;2023-10-13T02:34:46;19.50;99.90
22781;DHT22;11557;50.884;4.322;2023-10-13T02:37:12;19.60;99.90
22781;DHT22;11557;50.884;4.322;2023-10-13T02:39:39;19.50;99.90
22781;DHT22;11557;50.884;4.322;2023-10-13T02:42:10;19.60;99.90
22781;DHT22;11557;50.884;4.322;2023-10-13T02:44:48;19.60;99.90
22781;DHT22;11557;50.884;4.322;2023-10-13T02:47:14;19.60;99.90
22781;DHT22;11557;50.884;4.322;2023-10-13T02:49:40;19.60;99.90
22781;DHT22;11557;50.884;4.322;2023-10-13T02:52:12;19.60;99.90
22781;DHT22;11557;50.884;4.322;2023-10-13T02:54:42;19.60;99.90
22781;DHT22;11557;50.884;4.322;2023-10-13T02:57:17;19.60;99.90
22781;DHT22;11557;50.884;4.322;2023-10-13T02:59:43;19.60;99.90
22781;DHT22;11557;50.884;4.322;2023-10-13T03:02:13;19.50;99.90
22781;DHT22;11557;50.884;4.322;2023-10-13T03:04:48;19.50;99.90
22781;DHT22;11557;50.884;4.322;2023-10-13T03:07:14;19.40;99.90
22781;DHT22;11557;50.884;4.322;2023-10-13T03:09:49;19.40;99.90
22781;DHT22;11557;50.884;4.322;2023-10-13T03:12:16;19.40;99.90
22781;DHT22;11557;50.884;4.322;2023-10-13T03:14:42;19.40;99.90
22781;DHT22;11557;50.884;4.322;2023-10-13T03:17:13;19.40;99.90
22781;DHT22;11557;50.884;4.322;2023-10-13T03:19:48;19.50;99.90
22781;DHT22;11557;50.884;4.322;2023-10-13T03:22:17;19.50;99.90
22781;DHT22;11557;50.884;4.322;2023-10-13T03:24:44;19.60;99.90
22781;DHT22;11557;50.884;4.322;2023-10-13T03:27:18;19.50;99.90
22781;DHT22;11557;50.884;4.322;2023-10-13T03:29:49;19.60;99.90
22781;DHT22;11557;50.884;4.322;2023-10-13T03:32:20;19.60;99.90
22781;DHT22;11557;50.884;4.322;2023-10-13T03:34:47;19.60;99.90
22781;DHT22;11557;50.884;4.322;2023-10-13T03:37:20;19.60;99.90
22781;DHT22;11557;50.884;4.322;2023-10-13T03:40:06;19.70;99.90
22781;DHT22;11557;50.884;4.322;2023-10-13T03:42:54;19.60;99.90
22781;DHT22;11557;50.884;4.322;2023-10-13T03:45:40;19.50;99.90
22781;DHT22;11557;50.884;4.322;2023-10-13T03:48:12;19.50;99.90
22781;DHT22;11557;50.884;4.322;2023-10-13T03:50:52;19.40;99.90
22781;DHT22;11557;50.884;4.322;2023-10-13T03:53:30;19.40;99.90
22781;DHT22;11557;50.884;4.322;2023-10-13T03:56:02;19.30;99.90
22781;DHT22;11557;50.884;4.322;2023-10-13T03:58:38;19.20;99.90
22781;DHT22;11557;50.884;4.322;2023-10-13T04:01:07;19.20;99.90
22781;DHT22;11557;50.884;4.322;2023-10-13T04:03:35;19.30;99.90
22781;DHT22;11557;50.884;4.322;2023-10-13T04:06:05;19.40;99.90
22781;DHT22;11557;50.884;4.322;2023-10-13T04:08:33;19.40;99.90
22781;DHT22;11557;50.884;4.322;2023-10-13T04:11:09;19.40;99.90
22781;DHT22;11557;50.884;4.322;2023-10-13T04:13:53;19.60;99.90
22781;DHT22;11557;50.884;4.322;2023-10-13T04:16:37;19.60;99.90
22781;DHT22;11557;50.884;4.322;2023-10-13T04:19:17;19.50;99.90
22781;DHT22;11557;50.884;4.322;2023-10-13T04:21:50;19.50;99.90
22781;DHT22;11557;50.884;4.322;2023-10-13T04:24:26;19.50;99.90
22781;DHT22;11557;50.884;4.322;2023-10-13T04:27:12;19.60;99.90
22781;DHT22;11557;50.884;4.322;2023-10-13T04:29:40;19.60;99.90
22781;DHT22;11557;50.884;4.322;2023-10-13T04:32:25;19.50;99.90
22781;DHT22;11557;50.884;4.322;2023-10-13T04:35:04;19.40;99.90
22781;DHT22;11557;50.884;4.322;2023-10-13T04:37:39;19.50;99.90
22781;DHT22;11557;50.884;4.322;2023-10-13T04:40:23;19.50;99.90
22781;DHT22;11557;50.884;4.322;2023-10-13T04:43:00;19.40;99.90
22781;DHT22;11557;50.884;4.322;2023-10-13T04:45:52;19.40;99.90
22781;DHT22;11557;50.884;4.322;2023-10-13T04:48:20;19.40;99.90
22781;DHT22;11557;50.884;4.322;2023-10-13T04:50:49;19.40;99.90
22781;DHT22;11557;50.884;4.322;2023-10-13T04:53:24;19.50;99.90
22781;DHT22;11557;50.884;4.322;2023-10-13T04:55:53;19.50;99.90
22781;DHT22;11557;50.884;4.322;2023-10-13T04:58:45;19.60;99.90
22781;DHT22;11557;50.884;4.322;2023-10-13T05:01:29;19.50;99.90
22781;DHT22;11557;50.884;4.322;2023-10-13T05:03:55;19.50;99.90
22781;DHT22;11557;50.884;4.322;2023-10-13T05:06:39;19.40;99.90
22781;DHT22;11557;50.884;4.322;2023-10-13T05:09:24;19.40;99.90
22781;DHT22;11557;50.884;4.322;2023-10-13T05:12:08;19.40;99.90
22781;DHT22;11557;50.884;4.322;2023-10-13T05:14:52;19.40;99.90
22781;DHT22;11557;50.884;4.322;2023-10-13T05:17:36;19.60;99.90
22781;DHT22;11557;50.884;4.322;2023-10-13T05:20:20;19.50;99.90
22781;DHT22;11557;50.884;4.322;2023-10-13T05:23:04;19.60;99.90
22781;DHT22;11557;50.884;4.322;2023-10-13T05:25:48;19.60;99.90
22781;DHT22;11557;50.884;4.322;2023-10-13T05:28:32;19.60;99.90
22781;DHT22;11557;50.884;4.322;2023-10-13T05:31:16;19.50;99.90
22781;DHT22;11557;50.884;4.322;2023-10-13T05:34:00;19.50;99.90
22781;DHT22;11557;50.884;4.322;2023-10-13T05:36:44;19.50;99.90
22781;DHT22;11557;50.884;4.322;2023-10-13T05:39:28;19.50;99.90
22781;DHT22;11557;50.884;4.322;2023-10-13T05:42:12;19.50;99.90
22781;DHT22;11557;50.884;4.322;2023-10-13T05:44:56;19.30;99.90
22781;DHT22;11557;50.884;4.322;2023-10-13T05:47:42;19.40;99.90
22781;DHT22;11557;50.884;4.322;2023-10-13T05:50:11;19.50;99.90
22781;DHT22;11557;50.884;4.322;2023-10-13T05:52:46;19.40;99.90
22781;DHT22;11557;50.884;4.322;2023-10-13T05:55:41;19.40;99.90
22781;DHT22;11557;50.884;4.322;2023-10-13T05:58:25;19.40;99.90
22781;DHT22;11557;50.884;4.322;2023-10-13T06:01:12;19.40;99.90
22781;DHT22;11557;50.884;4.322;2023-10-13T06:03:56;19.40;99.90
22781;DHT22;11557;50.884;4.322;2023-10-13T06:06:40;19.40;99.90
22781;DHT22;11557;50.884;4.322;2023-10-13T06:09:24;19.40;99.90
22781;DHT22;11557;50.884;4.322;2023-10-13T06:12:08;19.40;99.90
22781;DHT22;11557;50.884;4.322;2023-10-13T06:14:52;19.40;99.90
22781;DHT22;11557;50.884;4.322;2023-10-13T06:17:36;19.30;99.90
22781;DHT22;11557;50.884;4.322;2023-10-13T06:20:20;19.30;99.90
22781;DHT22;11557;50.884;4.322;2023-10-13T06:23:04;19.30;99.90
22781;DHT22;11557;50.884;4.322;2023-10-13T06:25:52;19.30;99.90
22781;DHT22;11557;50.884;4.322;2023-10-13T06:28:36;19.40;99.90
22781;DHT22;11557;50.884;4.322;2023-10-13T06:31:10;19.40;99.90
22781;DHT22;11557;50.884;4.322;2023-10-13T06:33:48;19.50;99.90
22781;DHT22;11557;50.884;4.322;2023-10-13T06:36:14;19.40;99.90
22781;DHT22;11557;50.884;4.322;2023-10-13T06:38:39;19.40;99.90
22781;DHT22;11557;50.884;4.322;2023-10-13T06:41:07;19.40;99.90
22781;DHT22;11557;50.884;4.322;2023-10-13T06:43:36;19.50;99.90
22781;DHT22;11557;50.884;4.322;2023-10-13T06:46:06;19.40;99.90
22781;DHT22;11557;50.884;4.322;2023-10-13T06:48:33;19.40;99.90
22781;DHT22;11557;50.884;4.322;2023-10-13T06:51:01;19.40;99.90
22781;DHT22;11557;50.884;4.322;2023-10-13T06:53:30;19.50;99.90
22781;DHT22;11557;50.884;4.322;2023-10-13T06:56:02;19.50;99.90
22781;DHT22;11557;50.884;4.322;2023-10-13T06:58:30;19.60;99.90
22781;DHT22;11557;50.884;4.322;2023-10-13T07:00:58;19.60;99.90
22781;DHT22;11557;50.884;4.322;2023-10-13T07:03:27;19.60;99.90
22781;DHT22;11557;50.884;4.322;2023-10-13T07:05:52;19.60;99.90
22781;DHT22;11557;50.884;4.322;2023-10-13T07:08:19;19.60;99.90
22781;DHT22;11557;50.884;4.322;2023-10-13T07:10:55;19.60;99.90
22781;DHT22;11557;50.884;4.322;2023-10-13T07:13:43;19.50;99.90
22781;DHT22;11557;50.884;4.322;2023-10-13T07:16:15;19.60;99.90
22781;DHT22;11557;50.884;4.322;2023-10-13T07:18:41;19.60;99.90
22781;DHT22;11557;50.884;4.322;2023-10-13T07:21:15;19.60;99.90
22781;DHT22;11557;50.884;4.322;2023-10-13T07:23:41;19.60;99.90
22781;DHT22;11557;50.884;4.322;2023-10-13T07:26:15;19.70;99.90
22781;DHT22;11557;50.884;4.322;2023-10-13T07:28:40;19.80;99.90
22781;DHT22;11557;50.884;4.322;2023-10-13T07:31:13;19.80;99.90
22781;DHT22;11557;50.884;4.322;2023-10-13T07:33:40;19.80;99.90
22781;DHT22;11557;50.884;4.322;2023-10-13T07:36:08;19.90;99.90
22781;DHT22;11557;50.884;4.322;2023-10-13T07:38:50;19.80;99.90
22781;DHT22;11557;50.884;4.322;2023-10-13T07:41:25;19.80;99.90
22781;DHT22;11557;50.884;4.322;2023-10-13T07:43:56;19.80;99.90
22781;DHT22;11557;50.884;4.322;2023-10-13T07:46:23;19.80;99.90
22781;DHT22;11557;50.884;4.322;2023-10-13T07:48:56;19.90;99.90
22781;DHT22;11557;50.884;4.322;2023-10-13T07:51:35;19.80;99.90
22781;DHT22;11557;50.884;4.322;2023-10-13T07:54:10;19.90;99.90
22781;DHT22;11557;50.884;4.322;2023-10-13T07:56:38;20.00;99.90
22781;DHT22;11557;50.884;4.322;2023-10-13T07:59:05;20.10;99.90
22781;DHT22;11557;50.884;4.322;2023-10-13T08:01:35;20.20;99.90
22781;DHT22;11557;50.884;4.322;2023-10-13T08:04:01;20.30;99.90
22781;DHT22;11557;50.884;4.322;2023-10-13T08:06:40;20.40;99.90
22781;DHT22;11557;50.884;4.322;2023-10-13T08:09:07;20.40;99.90
22781;DHT22;11557;50.884;4.322;2023-10-13T08:11:36;20.40;99.90
22781;DHT22;11557;50.884;4.322;2023-10-13T08:14:03;20.50;99.90
22781;DHT22;11557;50.884;4.322;2023-10-13T08:16:49;20.60;99.90
22781;DHT22;11557;50.884;4.322;2023-10-13T08:19:20;20.70;99.90
22781;DHT22;11557;50.884;4.322;2023-10-13T08:21:57;20.80;99.90
22781;DHT22;11557;50.884;4.322;2023-10-13T08:24:25;20.70;99.90
22781;DHT22;11557;50.884;4.322;2023-10-13T08:26:55;20.60;99.90
22781;DHT22;11557;50.884;4.322;2023-10-13T08:29:47;20.60;99.90
22781;DHT22;11557;50.884;4.322;2023-10-13T08:32:26;20.60;99.90
22781;DHT22;11557;50.884;4.322;2023-10-13T08:34:52;20.50;99.90
22781;DHT22;11557;50.884;4.322;2023-10-13T08:37:18;20.50;99.90
22781;DHT22;11557;50.884;4.322;2023-10-13T08:39:50;20.60;99.90
22781;DHT22;11557;50.884;4.322;2023-10-13T08:42:39;20.60;99.90
22781;DHT22;11557;50.884;4.322;2023-10-13T08:45:10;20.60;99.90
22781;DHT22;11557;50.884;4.322;2023-10-13T08:47:52;20.70;99.90
22781;DHT22;11557;50.884;4.322;2023-10-13T08:50:52;20.70;99.90
22781;DHT22;11557;50.884;4.322;2023-10-13T08:56:01;20.80;99.90
22781;DHT22;11557;50.884;4.322;2023-10-13T08:58:48;20.80;99.90
22781;DHT22;11557;50.884;4.322;2023-10-13T09:01:54;20.80;99.90
22781;DHT22;11557;50.884;4.322;2023-10-13T09:04:25;20.80;99.90
22781;DHT22;11557;50.884;4.322;2023-10-13T09:07:03;20.80;99.90
22781;DHT22;11557;50.884;4.322;2023-10-13T09:12:29;20.80;99.90
22781;DHT22;11557;50.884;4.322;2023-10-13T09:14:59;20.90;99.90
22781;DHT22;11557;50.884;4.322;2023-10-13T09:17:49;20.90;99.90
22781;DHT22;11557;50.884;4.322;2023-10-13T09:20:30;20.90;99.90
22781;DHT22;11557;50.884;4.322;2023-10-13T09:23:09;21.10;99.90
22781;DHT22;11557;50.884;4.322;2023-10-13T09:25:39;21.50;99.90
22781;DHT22;11557;50.884;4.322;2023-10-13T09:28:19;21.60;99.90
22781;DHT22;11557;50.884;4.322;2023-10-13T09:30:51;21.60;99.90
22781;DHT22;11557;50.884;4.322;2023-10-13T09:33:26;21.50;99.90
22781;DHT22;11557;50.884;4.322;2023-10-13T09:35:59;21.40;99.90
22781;DHT22;11557;50.884;4.322;2023-10-13T09:38:27;21.40;99.90
22781;DHT22;11557;50.884;4.322;2023-10-13T09:40:53;21.30;99.90
22781;DHT22;11557;50.884;4.322;2023-10-13T09:43:26;21.40;99.90
22781;DHT22;11557;50.884;4.322;2023-10-13T09:46:00;21.50;99.90
22781;DHT22;11557;50.884;4.322;2023-10-13T09:48:36;21.60;99.90
22781;DHT22;11557;50.884;4.322;2023-10-13T09:51:03;21.50;99.90
22781;DHT22;11557;50.884;4.322;2023-10-13T09:53:35;21.50;99.90
22781;DHT22;11557;50.884;4.322;2023-10-13T09:56:12;21.60;99.90
22781;DHT22;11557;50.884;4.322;2023-10-13T09:59:00;21.70;99.90
22781;DHT22;11557;50.884;4.322;2023-10-13T10:01:40;21.60;99.90
22781;DHT22;11557;50.884;4.322;2023-10-13T10:04:16;21.60;99.90
22781;DHT22;11557;50.884;4.322;2023-10-13T10:06:59;21.60;99.90
22781;DHT22;11557;50.884;4.322;2023-10-13T10:09:29;21.60;99.90
22781;DHT22;11557;50.884;4.322;2023-10-13T10:17:14;21.80;99.90
22781;DHT22;11557;50.884;4.322;2023-10-13T10:19:49;21.80;99.90
22781;DHT22;11557;50.884;4.322;2023-10-13T10:22:29;21.90;99.90
22781;DHT22;11557;50.884;4.322;2023-10-13T10:25:06;21.90;99.90
22781;DHT22;11557;50.884;4.322;2023-10-13T10:28:06;21.90;99.90
22781;DHT22;11557;50.884;4.322;2023-10-13T10:30:37;21.90;99.90
22781;DHT22;11557;50.884;4.322;2023-10-13T10:33:08;21.90;99.90
22781;DHT22;11557;50.884;4.322;2023-10-13T10:35:58;21.90;99.90
22781;DHT22;11557;50.884;4.322;2023-10-13T10:38:24;21.90;99.90
22781;DHT22;11557;50.884;4.322;2023-10-13T10:41:01;22.00;99.90
22781;DHT22;11557;50.884;4.322;2023-10-13T10:46:11;22.10;99.90
22781;DHT22;11557;50.884;4.322;2023-10-13T10:48:37;22.20;99.90
22781;DHT22;11557;50.884;4.322;2023-10-13T10:51:13;22.30;99.90
22781;DHT22;11557;50.884;4.322;2023-10-13T10:53:52;22.40;99.90
22781;DHT22;11557;50.884;4.322;2023-10-13T10:56:22;22.50;99.90
22781;DHT22;11557;50.884;4.322;2023-10-13T10:58:54;22.40;99.90
22781;DHT22;11557;50.884;4.322;2023-10-13T11:01:26;22.40;99.90
22781;DHT22;11557;50.884;4.322;2023-10-13T11:04:03;22.50;99.90
22781;DHT22;11557;50.884;4.322;2023-10-13T11:06:55;22.60;99.90
22781;DHT22;11557;50.884;4.322;2023-10-13T11:09:25;22.70;99.90
22781;DHT22;11557;50.884;4.322;2023-10-13T11:14:32;22.90;99.90
22781;DHT22;11557;50.884;4.322;2023-10-13T11:16:59;23.00;99.90
22781;DHT22;11557;50.884;4.322;2023-10-13T11:19:43;23.10;99.90
22781;DHT22;11557;50.884;4.322;2023-10-13T11:22:12;23.10;99.90
22781;DHT22;11557;50.884;4.322;2023-10-13T11:24:58;23.10;99.90
22781;DHT22;11557;50.884;4.322;2023-10-13T11:27:31;23.10;99.90
22781;DHT22;11557;50.884;4.322;2023-10-13T11:30:17;23.10;99.90
22781;DHT22;11557;50.884;4.322;2023-10-13T11:33:24;23.10;99.90
22781;DHT22;11557;50.884;4.322;2023-10-13T11:35:44;23.10;99.90
22781;DHT22;11557;50.884;4.322;2023-10-13T11:38:31;23.20;99.90
22781;DHT22;11557;50.884;4.322;2023-10-13T11:41:19;23.20;99.90
22781;DHT22;11557;50.884;4.322;2023-10-13T11:43:50;23.20;99.90
22781;DHT22;11557;50.884;4.322;2023-10-13T11:46:26;23.30;99.90
22781;DHT22;11557;50.884;4.322;2023-10-13T11:49:04;23.40;99.90
22781;DHT22;11557;50.884;4.322;2023-10-13T11:51:53;23.60;99.90
22781;DHT22;11557;50.884;4.322;2023-10-13T11:54:41;23.80;99.90
22781;DHT22;11557;50.884;4.322;2023-10-13T11:57:08;23.70;99.90
22781;DHT22;11557;50.884;4.322;2023-10-13T11:59:33;23.60;99.90
22781;DHT22;11557;50.884;4.322;2023-10-13T12:02:01;23.60;99.90
22781;DHT22;11557;50.884;4.322;2023-10-13T12:04:37;23.60;99.90
22781;DHT22;11557;50.884;4.322;2023-10-13T12:07:09;23.60;99.90
22781;DHT22;11557;50.884;4.322;2023-10-13T12:10:05;23.50;99.90
22781;DHT22;11557;50.884;4.322;2023-10-13T12:12:40;23.40;99.90
22781;DHT22;11557;50.884;4.322;2023-10-13T12:15:08;23.30;99.90
22781;DHT22;11557;50.884;4.322;2023-10-13T12:17:35;23.30;99.90
22781;DHT22;11557;50.884;4.322;2023-10-13T12:20:03;23.30;99.90
22781;DHT22;11557;50.884;4.322;2023-10-13T12:22:33;23.20;99.90
22781;DHT22;11557;50.884;4.322;2023-10-13T12:25:09;23.10;99.90
22781;DHT22;11557;50.884;4.322;2023-10-13T12:27:54;23.10;99.90
22781;DHT22;11557;50.884;4.322;2023-10-13T12:30:26;23.10;99.90
22781;DHT22;11557;50.884;4.322;2023-10-13T12:33:10;22.90;99.90
22781;DHT22;11557;50.884;4.322;2023-10-13T12:35:42;22.80;99.90
22781;DHT22;11557;50.884;4.322;2023-10-13T12:38:31;22.80;99.90
22781;DHT22;11557;50.884;4.322;2023-10-13T12:41:19;22.80;99.90
22781;DHT22;11557;50.884;4.322;2023-10-13T12:44:05;22.80;99.90
22781;DHT22;11557;50.884;4.322;2023-10-13T12:46:50;22.70;99.90
22781;DHT22;11557;50.884;4.322;2023-10-13T12:49:35;22.80;99.90
22781;DHT22;11557;50.884;4.322;2023-10-13T12:52:15;22.70;99.90
22781;DHT22;11557;50.884;4.322;2023-10-13T12:54:59;22.80;99.90
22781;DHT22;11557;50.884;4.322;2023-10-13T12:57:33;22.80;99.90
22781;DHT22;11557;50.884;4.322;2023-10-13T12:59:59;22.80;99.90
22781;DHT22;11557;50.884;4.322;2023-10-13T13:02:26;22.80;99.90
22781;DHT22;11557;50.884;4.322;2023-10-13T13:04:56;22.90;99.90
22781;DHT22;11557;50.884;4.322;2023-10-13T13:07:40;22.90;99.90
22781;DHT22;11557;50.884;4.322;2023-10-13T13:10:13;23.00;99.90
22781;DHT22;11557;50.884;4.322;2023-10-13T13:12:40;23.00;99.90
22781;DHT22;11557;50.884;4.322;2023-10-13T13:15:06;23.00;99.90
22781;DHT22;11557;50.884;4.322;2023-10-13T13:17:38;23.10;99.90
22781;DHT22;11557;50.884;4.322;2023-10-13T13:20:06;23.10;99.90
22781;DHT22;11557;50.884;4.322;2023-10-13T13:22:39;23.10;99.90
22781;DHT22;11557;50.884;4.322;2023-10-13T13:25:05;23.10;99.90
22781;DHT22;11557;50.884;4.322;2023-10-13T13:27:36;23.10;99.90
22781;DHT22;11557;50.884;4.322;2023-10-13T13:30:07;23.00;99.90
22781;DHT22;11557;50.884;4.322;2023-10-13T13:32:39;23.20;99.90
22781;DHT22;11557;50.884;4.322;2023-10-13T13:35:08;23.20;99.90
22781;DHT22;11557;50.884;4.322;2023-10-13T13:37:39;23.10;99.90
22781;DHT22;11557;50.884;4.322;2023-10-13T13:40:06;23.20;99.90
22781;DHT22;11557;50.884;4.322;2023-10-13T13:42:42;22.30;99.90
22781;DHT22;11557;50.884;4.322;2023-10-13T13:45:18;23.30;99.90
22781;DHT22;11557;50.884;4.322;2023-10-13T13:47:49;23.40;99.90
22781;DHT22;11557;50.884;4.322;2023-10-13T13:50:25;23.40;99.90
22781;DHT22;11557;50.884;4.322;2023-10-13T13:52:58;23.50;99.90
22781;DHT22;11557;50.884;4.322;2023-10-13T13:55:26;23.40;99.90
22781;DHT22;11557;50.884;4.322;2023-10-13T13:57:57;23.40;99.90
22781;DHT22;11557;50.884;4.322;2023-10-13T14:00:23;23.40;99.90
22781;DHT22;11557;50.884;4.322;2023-10-13T14:03:06;23.40;99.90
22781;DHT22;11557;50.884;4.322;2023-10-13T14:05:44;23.30;99.90
22781;DHT22;11557;50.884;4.322;2023-10-13T14:08:10;23.20;99.90
22781;DHT22;11557;50.884;4.322;2023-10-13T14:10:40;23.20;99.90
22781;DHT22;11557;50.884;4.322;2023-10-13T14:13:30;23.10;99.90
22781;DHT22;11557;50.884;4.322;2023-10-13T14:16:18;23.20;99.90
22781;DHT22;11557;50.884;4.322;2023-10-13T14:18:49;23.10;99.90
22781;DHT22;11557;50.884;4.322;2023-10-13T14:21:15;23.10;99.90
22781;DHT22;11557;50.884;4.322;2023-10-13T14:23:46;23.10;99.90
22781;DHT22;11557;50.884;4.322;2023-10-13T14:26:13;23.10;99.90
22781;DHT22;11557;50.884;4.322;2023-10-13T14:28:39;23.10;99.90
22781;DHT22;11557;50.884;4.322;2023-10-13T14:31:17;23.10;99.90
22781;DHT22;11557;50.884;4.322;2023-10-13T14:33:46;23.00;99.90
22781;DHT22;11557;50.884;4.322;2023-10-13T14:36:13;22.90;99.90
22781;DHT22;11557;50.884;4.322;2023-10-13T14:38:38;22.80;99.90
22781;DHT22;11557;50.884;4.322;2023-10-13T14:41:09;22.90;99.90
22781;DHT22;11557;50.884;4.322;2023-10-13T14:43:35;22.80;99.90
22781;DHT22;11557;50.884;4.322;2023-10-13T14:46:00;22.90;99.90
22781;DHT22;11557;50.884;4.322;2023-10-13T14:48:26;22.70;99.90
22781;DHT22;11557;50.884;4.322;2023-10-13T14:50:52;22.70;99.90
22781;DHT22;11557;50.884;4.322;2023-10-13T14:53:18;22.70;99.90
22781;DHT22;11557;50.884;4.322;2023-10-13T14:55:45;22.70;99.90
22781;DHT22;11557;50.884;4.322;2023-10-13T14:58:11;22.60;99.90
22781;DHT22;11557;50.884;4.322;2023-10-13T15:00:42;22.50;99.90
22781;DHT22;11557;50.884;4.322;2023-10-13T15:03:11;22.50;99.90
22781;DHT22;11557;50.884;4.322;2023-10-13T15:05:40;22.50;99.90
22781;DHT22;11557;50.884;4.322;2023-10-13T15:08:11;22.30;99.90
22781;DHT22;11557;50.884;4.322;2023-10-13T15:10:37;22.30;99.90
22781;DHT22;11557;50.884;4.322;2023-10-13T15:13:04;22.20;99.90
22781;DHT22;11557;50.884;4.322;2023-10-13T15:15:30;22.20;99.90
22781;DHT22;11557;50.884;4.322;2023-10-13T15:17:58;22.20;99.90
22781;DHT22;11557;50.884;4.322;2023-10-13T15:20:24;22.10;99.90
22781;DHT22;11557;50.884;4.322;2023-10-13T15:22:49;22.10;99.90
22781;DHT22;11557;50.884;4.322;2023-10-13T15:25:15;22.10;99.90
22781;DHT22;11557;50.884;4.322;2023-10-13T15:28:00;22.10;99.90
22781;DHT22;11557;50.884;4.322;2023-10-13T15:30:33;22.00;99.90
22781;DHT22;11557;50.884;4.322;2023-10-13T15:33:21;22.00;99.90
22781;DHT22;11557;50.884;4.322;2023-10-13T15:35:46;22.00;99.90
22781;DHT22;11557;50.884;4.322;2023-10-13T15:38:12;21.70;99.90
22781;DHT22;11557;50.884;4.322;2023-10-13T15:40:44;22.00;99.90
22781;DHT22;11557;50.884;4.322;2023-10-13T15:43:11;22.10;99.90
22781;DHT22;11557;50.884;4.322;2023-10-13T15:45:36;22.10;99.90
22781;DHT22;11557;50.884;4.322;2023-10-13T15:48:05;22.10;99.90
22781;DHT22;11557;50.884;4.322;2023-10-13T15:50:38;22.10;99.90
22781;DHT22;11557;50.884;4.322;2023-10-13T15:53:05;22.10;99.90
22781;DHT22;11557;50.884;4.322;2023-10-13T15:55:35;22.20;99.90
22781;DHT22;11557;50.884;4.322;2023-10-13T15:58:04;22.10;99.90
22781;DHT22;11557;50.884;4.322;2023-10-13T16:00:36;22.00;99.90
22781;DHT22;11557;50.884;4.322;2023-10-13T16:03:03;21.90;99.90
22781;DHT22;11557;50.884;4.322;2023-10-13T16:05:35;22.00;99.90
22781;DHT22;11557;50.884;4.322;2023-10-13T16:08:03;22.00;99.90
22781;DHT22;11557;50.884;4.322;2023-10-13T16:10:29;21.90;99.90
22781;DHT22;11557;50.884;4.322;2023-10-13T16:12:55;21.80;99.90
22781;DHT22;11557;50.884;4.322;2023-10-13T16:15:24;21.80;99.90
22781;DHT22;11557;50.884;4.322;2023-10-13T16:17:50;21.90;99.90
22781;DHT22;11557;50.884;4.322;2023-10-13T16:20:19;21.90;99.90
22781;DHT22;11557;50.884;4.322;2023-10-13T16:22:47;21.90;99.90
22781;DHT22;11557;50.884;4.322;2023-10-13T16:25:14;21.90;99.90
22781;DHT22;11557;50.884;4.322;2023-10-13T16:27:42;21.70;99.90